createdAt,value
2017-12-14T00:00:53.340Z,2.40
2017-12-14T00:03:20.888Z,3.47
2017-12-14T00:05:49.165Z,3.17
2017-12-14T00:08:16.704Z,1.93
2017-12-14T00:10:44.216Z,1.43
2017-12-14T00:13:11.756Z,6.30
2017-12-14T00:15:39.256Z,4.00
2017-12-14T00:18:06.808Z,3.50
2017-12-14T00:20:34.312Z,5.30
2017-12-14T00:23:02.584Z,3.57
2017-12-14T00:25:30.121Z,8.90
2017-12-14T00:27:57.627Z,4.23
2017-12-14T00:30:25.185Z,1.10
2017-12-14T00:32:52.712Z,5.87
2017-12-14T00:35:20.265Z,2.30
2017-12-14T00:37:48.540Z,2.07
2017-12-14T00:40:16.085Z,3.70
2017-12-14T00:42:43.588Z,2.30
2017-12-14T00:45:11.152Z,1.30
2017-12-14T00:47:38.664Z,4.20
2017-12-14T00:50:06.180Z,4.93
2017-12-14T00:52:33.720Z,2.20
2017-12-14T00:55:01.236Z,2.60
2017-12-14T00:57:28.787Z,3.87
2017-12-14T00:59:56.304Z,8.00
2017-12-14T01:02:23.857Z,2.50
2017-12-14T01:04:51.374Z,2.30
2017-12-14T01:07:18.916Z,1.43
2017-12-14T01:09:47.196Z,3.53
2017-12-14T01:12:14.740Z,0.70
2017-12-14T01:14:42.257Z,2.80
2017-12-14T01:17:09.825Z,1.70
2017-12-14T01:19:38.100Z,2.10
2017-12-14T01:22:05.612Z,1.73
2017-12-14T01:24:33.227Z,1.67
2017-12-14T01:27:00.796Z,3.30
2017-12-14T01:29:28.308Z,5.80
2017-12-14T01:31:55.832Z,3.30
2017-12-14T01:34:23.379Z,5.40
2017-12-14T01:36:50.901Z,3.50
2017-12-14T01:39:18.443Z,2.83
2017-12-14T01:41:45.956Z,1.53
2017-12-14T01:44:13.512Z,2.77
2017-12-14T01:46:41.028Z,3.00
2017-12-14T01:49:08.568Z,3.27
2017-12-14T01:51:36.845Z,10.40
2017-12-14T01:54:04.397Z,3.83
2017-12-14T01:56:31.912Z,2.80
2017-12-14T01:59:00.217Z,1.40
2017-12-14T02:01:27.736Z,4.13
2017-12-14T02:03:55.298Z,3.37
2017-12-14T02:06:22.805Z,4.27
2017-12-14T02:08:50.317Z,1.10
2017-12-14T02:11:17.860Z,3.77
2017-12-14T02:13:46.137Z,3.40
2017-12-14T02:19:04.116Z,6.10
2017-12-14T02:21:31.669Z,3.90
2017-12-14T02:23:59.180Z,4.33
2017-12-14T02:26:27.491Z,1.83
2017-12-14T02:28:55.052Z,2.23
2017-12-14T02:31:22.611Z,7.73
2017-12-14T02:33:50.901Z,1.37
2017-12-14T02:36:18.458Z,1.47
2017-12-14T02:38:45.974Z,4.93
2017-12-14T02:41:13.537Z,4.30
2017-12-14T02:43:41.097Z,6.60
2017-12-14T02:46:08.660Z,8.67
2017-12-14T02:48:36.941Z,7.13
2017-12-14T02:51:05.221Z,4.20
2017-12-14T02:53:32.784Z,5.10
2017-12-14T02:56:00.291Z,4.20
2017-12-14T02:58:27.835Z,3.93
2017-12-14T03:00:55.352Z,7.53
2017-12-14T03:03:22.914Z,4.63
2017-12-14T03:05:50.448Z,8.87
2017-12-14T03:08:18.017Z,4.17
2017-12-14T03:10:45.538Z,1.70
2017-12-14T03:13:13.086Z,9.60
2017-12-14T03:15:41.414Z,1.13
2017-12-14T03:18:08.946Z,0.83
2017-12-14T03:20:37.267Z,1.67
2017-12-14T03:23:04.780Z,2.50
2017-12-14T03:25:32.337Z,0.53
2017-12-14T03:27:59.849Z,2.07
2017-12-14T03:30:28.177Z,0.50
2017-12-14T03:32:56.737Z,1.57
2017-12-14T03:35:25.077Z,5.13
2017-12-14T03:37:52.581Z,0.90
2017-12-14T03:40:20.097Z,0.60
2017-12-14T03:42:47.644Z,1.07
2017-12-14T03:45:15.938Z,0.40
2017-12-14T03:47:44.249Z,0.80
2017-12-14T03:50:11.816Z,0.73
2017-12-14T03:52:39.362Z,0.50
2017-12-14T03:55:06.883Z,0.63
2017-12-14T03:57:34.430Z,0.37
2017-12-14T04:00:01.946Z,1.23
2017-12-14T04:02:29.504Z,0.90
2017-12-14T04:04:57.033Z,2.50
2017-12-14T04:07:25.313Z,0.30
2017-12-14T04:09:53.622Z,0.37
2017-12-14T04:12:21.133Z,1.27
2017-12-14T04:14:48.682Z,1.07
2017-12-14T04:17:16.200Z,2.10
2017-12-14T04:19:43.761Z,0.87
2017-12-14T04:22:11.268Z,1.43
2017-12-14T04:24:39.589Z,2.03
2017-12-14T04:27:07.108Z,3.03
2017-12-14T04:29:34.660Z,0.30
2017-12-14T04:32:02.200Z,0.90
2017-12-14T04:34:29.757Z,0.93
2017-12-14T04:36:57.282Z,0.57
2017-12-14T04:39:24.809Z,0.57
2017-12-14T04:41:52.356Z,0.43
2017-12-14T04:44:20.644Z,0.30
2017-12-14T04:46:48.205Z,3.50
2017-12-14T04:49:16.500Z,0.37
2017-12-14T04:51:44.053Z,0.30
2017-12-14T04:54:11.570Z,2.07
2017-12-14T04:56:39.114Z,2.73
2017-12-14T04:59:06.634Z,1.13
2017-12-14T05:01:34.202Z,0.43
2017-12-14T05:04:01.718Z,0.60
2017-12-14T05:06:29.245Z,1.40
2017-12-14T05:08:56.852Z,1.07
2017-12-14T05:11:24.373Z,0.50
2017-12-14T05:13:51.921Z,0.57
2017-12-14T05:16:19.497Z,1.03
2017-12-14T05:18:47.041Z,2.03
2017-12-14T05:21:15.453Z,2.73
2017-12-14T05:23:42.995Z,0.87
2017-12-14T05:26:10.533Z,0.90
2017-12-14T05:28:38.081Z,0.70
2017-12-14T05:31:06.361Z,0.97
2017-12-14T05:33:34.069Z,0.60
2017-12-14T05:36:01.554Z,9.43
2017-12-14T05:38:29.092Z,2.73
2017-12-14T05:40:57.423Z,2.10
2017-12-14T05:43:24.954Z,2.20
2017-12-14T05:45:52.520Z,5.00
2017-12-14T05:48:20.047Z,3.40
2017-12-14T05:50:47.601Z,2.00
2017-12-14T05:53:15.124Z,4.00
2017-12-14T05:55:42.701Z,2.40
2017-12-14T05:58:10.241Z,7.97
2017-12-14T06:00:37.758Z,9.13
2017-12-14T06:03:05.311Z,10.23
2017-12-14T06:05:32.831Z,5.17
2017-12-14T06:08:00.400Z,6.13
2017-12-14T06:10:27.909Z,18.00
2017-12-14T06:12:55.460Z,5.27
2017-12-14T06:15:22.974Z,2.30
2017-12-14T06:17:50.536Z,3.90
2017-12-14T06:20:18.069Z,4.83
2017-12-14T06:22:45.628Z,10.00
2017-12-14T06:25:13.142Z,12.93
2017-12-14T06:27:40.716Z,5.40
2017-12-14T06:30:08.233Z,12.13
2017-12-14T06:32:36.516Z,9.47
2017-12-14T06:35:04.077Z,11.40
2017-12-14T06:37:31.593Z,8.43
2017-12-14T06:39:59.138Z,2.33
2017-12-14T06:42:27.439Z,10.93
2017-12-14T06:44:55.003Z,14.50
2017-12-14T06:47:22.524Z,6.80
2017-12-14T06:49:50.099Z,10.63
2017-12-14T06:52:17.621Z,8.23
2017-12-14T06:54:45.140Z,8.77
2017-12-14T06:57:12.710Z,10.70
2017-12-14T06:59:40.232Z,6.97
2017-12-14T07:02:08.562Z,8.77
2017-12-14T07:04:36.093Z,12.90
2017-12-14T07:07:03.649Z,7.70
2017-12-14T07:09:31.182Z,5.90
2017-12-14T07:11:58.732Z,6.57
2017-12-14T07:14:26.249Z,6.07
2017-12-14T07:16:53.814Z,9.37
2017-12-14T07:19:21.341Z,6.23
2017-12-14T07:21:49.186Z,8.03
2017-12-14T07:24:16.740Z,4.57
2017-12-14T07:26:44.277Z,12.20
2017-12-14T07:29:11.820Z,6.60
2017-12-14T07:31:39.332Z,7.37
2017-12-14T07:34:06.899Z,5.00
2017-12-14T07:36:34.412Z,8.97
2017-12-14T07:39:01.964Z,8.50
2017-12-14T07:41:29.472Z,12.37
2017-12-14T07:44:09.612Z,15.40
2017-12-14T07:46:48.837Z,1.53
2017-12-14T07:49:24.044Z,9.63
2017-12-14T07:51:52.324Z,4.30
2017-12-14T07:54:20.644Z,12.70
2017-12-14T07:56:48.174Z,13.53
2017-12-14T07:59:15.693Z,9.70
2017-12-14T08:01:43.252Z,7.77
2017-12-14T08:04:10.766Z,7.97
2017-12-14T08:06:38.320Z,11.07
2017-12-14T08:09:05.849Z,20.40
2017-12-14T08:11:34.186Z,10.47
2017-12-14T08:14:01.729Z,5.33
2017-12-14T08:16:29.284Z,8.53
2017-12-14T08:18:57.565Z,17.73
2017-12-14T08:21:25.910Z,8.57
2017-12-14T08:23:53.428Z,14.80
2017-12-14T08:26:20.957Z,16.30
2017-12-14T08:28:48.516Z,14.30
2017-12-14T08:31:16.056Z,7.93
2017-12-14T08:33:44.393Z,8.27
2017-12-14T08:36:11.906Z,6.70
2017-12-14T08:38:39.493Z,6.63
2017-12-14T08:41:07.769Z,9.23
2017-12-14T08:43:35.327Z,9.03
2017-12-14T08:46:02.849Z,12.13
2017-12-14T08:48:30.424Z,8.50
2017-12-14T08:50:57.946Z,12.27
2017-12-14T08:53:25.509Z,11.27
2017-12-14T08:55:53.038Z,5.07
2017-12-14T08:58:20.552Z,15.97
2017-12-14T09:00:48.104Z,12.97
2017-12-14T09:03:15.624Z,10.07
2017-12-14T09:05:43.937Z,7.10
2017-12-14T09:08:11.478Z,8.43
2017-12-14T09:10:39.032Z,7.10
2017-12-14T09:13:06.577Z,8.20
2017-12-14T09:15:34.127Z,10.07
2017-12-14T09:18:01.658Z,11.50
2017-12-14T09:20:29.224Z,9.57
2017-12-14T09:22:56.745Z,11.37
2017-12-14T09:25:24.293Z,9.83
2017-12-14T09:27:52.633Z,8.73
2017-12-14T09:30:20.191Z,9.73
2017-12-14T09:32:47.714Z,6.70
2017-12-14T09:35:15.286Z,6.40
2017-12-14T09:37:42.806Z,12.03
2017-12-14T09:40:10.328Z,10.33
2017-12-14T09:42:37.878Z,5.50
2017-12-14T09:45:05.396Z,6.77
2017-12-14T09:47:32.940Z,6.53
2017-12-14T09:50:00.456Z,2.40
2017-12-14T09:52:28.009Z,9.90
2017-12-14T09:54:56.289Z,3.77
2017-12-14T09:57:24.617Z,5.13
2017-12-14T09:59:52.124Z,3.43
2017-12-14T10:02:19.720Z,5.80
2017-12-14T10:04:48.006Z,12.30
2017-12-14T10:07:15.553Z,2.30
2017-12-14T10:09:43.060Z,1.77
2017-12-14T10:12:10.624Z,3.77
2017-12-14T10:14:38.145Z,4.77
2017-12-14T10:17:05.669Z,3.17
2017-12-14T10:19:33.221Z,3.70
2017-12-14T10:22:00.732Z,2.07
2017-12-14T10:24:28.285Z,3.23
2017-12-14T10:26:56.565Z,5.23
2017-12-14T10:29:24.119Z,0.40
2017-12-14T10:31:51.641Z,0.50
2017-12-14T10:34:19.215Z,4.30
2017-12-14T10:36:46.746Z,1.83
2017-12-14T10:39:14.305Z,0.60
2017-12-14T10:41:41.822Z,1.43
2017-12-14T10:44:10.149Z,0.70
2017-12-14T10:46:37.673Z,1.37
2017-12-14T10:49:05.952Z,0.60
2017-12-14T10:51:33.505Z,1.23
2017-12-14T10:54:01.024Z,2.03
2017-12-14T10:56:28.569Z,2.50
2017-12-14T10:58:56.084Z,2.83
2017-12-14T11:01:30.228Z,2.03
2017-12-14T11:03:57.728Z,1.73
2017-12-14T11:06:25.292Z,2.40
2017-12-14T11:08:52.820Z,1.57
2017-12-14T11:11:20.385Z,6.87
2017-12-14T11:13:47.920Z,2.80
2017-12-14T11:16:15.438Z,2.20
2017-12-14T11:18:42.989Z,1.90
2017-12-14T11:21:11.272Z,2.20
2017-12-14T11:23:39.616Z,10.00
2017-12-14T11:26:07.144Z,5.00
2017-12-14T11:28:34.700Z,3.10
2017-12-14T11:31:02.229Z,2.27
2017-12-14T11:33:29.799Z,2.83
2017-12-14T11:35:57.325Z,2.10
2017-12-14T11:38:25.656Z,2.07
2017-12-14T11:40:53.180Z,1.87
2017-12-14T11:43:21.499Z,2.20
2017-12-14T11:45:49.061Z,2.20
2017-12-14T11:48:16.592Z,1.27
2017-12-14T11:50:44.141Z,3.20
2017-12-14T11:53:11.673Z,2.93
2017-12-14T11:55:39.247Z,3.50
2017-12-14T11:58:07.634Z,2.97
2017-12-14T12:00:35.957Z,6.00
2017-12-14T12:03:03.481Z,1.80
2017-12-14T12:05:31.803Z,3.43
2017-12-14T12:07:59.316Z,6.63
2017-12-14T12:10:26.900Z,4.20
2017-12-14T12:12:54.420Z,9.30
2017-12-14T12:15:21.953Z,9.70
2017-12-14T12:17:49.504Z,5.40
2017-12-14T12:20:17.177Z,5.47
2017-12-14T12:22:44.801Z,1.47
2017-12-14T12:25:12.367Z,3.63
2017-12-14T12:27:39.937Z,3.03
2017-12-14T12:30:17.524Z,1.10
2017-12-14T12:32:45.079Z,1.03
2017-12-14T12:35:13.491Z,2.80
2017-12-14T12:37:41.087Z,1.43
2017-12-14T12:40:08.720Z,2.87
2017-12-14T12:42:37.052Z,1.80
2017-12-14T12:45:04.629Z,1.50
2017-12-14T12:47:32.965Z,1.70
2017-12-14T12:50:00.650Z,0.90
2017-12-14T12:52:28.168Z,1.53
2017-12-14T12:54:55.773Z,0.63
2017-12-14T12:57:23.293Z,0.67
2017-12-14T12:59:50.873Z,1.03
2017-12-14T13:02:19.153Z,0.57
2017-12-14T13:04:46.717Z,3.40
2017-12-14T13:07:14.230Z,1.67
2017-12-14T13:09:41.749Z,3.60
2017-12-14T13:12:09.308Z,3.53
2017-12-14T13:14:36.824Z,1.07
2017-12-14T13:17:05.148Z,0.90
2017-12-14T13:19:32.661Z,0.73
2017-12-14T13:22:00.213Z,1.13
2017-12-14T13:24:27.859Z,0.83
2017-12-14T13:26:55.412Z,1.03
2017-12-14T13:29:23.685Z,1.40
2017-12-14T13:31:52.039Z,1.33
2017-12-14T13:34:19.565Z,0.90
2017-12-14T13:36:47.129Z,0.60
2017-12-14T13:39:14.646Z,1.40
2017-12-14T13:41:42.201Z,0.60
2017-12-14T13:44:09.713Z,0.40
2017-12-14T13:46:37.272Z,2.10
2017-12-14T13:49:04.793Z,0.97
2017-12-14T13:51:32.302Z,0.83
2017-12-14T13:53:59.855Z,1.37
2017-12-14T13:56:27.363Z,0.90
2017-12-14T13:58:54.969Z,0.80
2017-12-14T14:01:22.485Z,0.60
2017-12-14T14:03:50.048Z,0.70
2017-12-14T14:06:17.585Z,1.23
2017-12-14T14:08:46.121Z,1.73
2017-12-14T14:11:13.633Z,3.33
2017-12-14T14:13:41.186Z,1.57
2017-12-14T14:16:08.712Z,2.20
2017-12-14T14:18:36.277Z,0.70
2017-12-14T14:21:04.557Z,0.60
2017-12-14T14:23:32.065Z,0.40
2017-12-14T14:25:59.617Z,6.17
2017-12-14T14:28:27.899Z,0.50
2017-12-14T14:30:56.216Z,1.23
2017-12-14T14:33:24.497Z,2.33
2017-12-14T14:35:52.052Z,1.17
2017-12-14T14:38:20.333Z,1.13
2017-12-14T14:40:48.669Z,0.73
2017-12-14T14:43:16.261Z,0.37
2017-12-14T14:45:43.851Z,0.60
2017-12-14T14:48:11.365Z,0.70
2017-12-14T14:50:38.910Z,0.73
2017-12-14T14:53:06.445Z,1.60
2017-12-14T14:55:34.006Z,3.23
2017-12-14T14:58:02.329Z,2.27
2017-12-14T15:00:29.856Z,1.37
2017-12-14T15:02:57.401Z,1.57
2017-12-14T15:05:25.704Z,0.90
2017-12-14T15:07:54.019Z,1.33
2017-12-14T15:10:21.550Z,0.87
2017-12-14T15:12:49.869Z,1.03
2017-12-14T15:15:17.385Z,2.27
2017-12-14T15:17:44.941Z,1.23
2017-12-14T15:20:12.502Z,1.97
2017-12-14T15:22:40.053Z,0.70
2017-12-14T15:25:07.569Z,2.30
2017-12-14T15:27:35.907Z,2.30
2017-12-14T15:30:03.574Z,1.60
2017-12-14T15:32:31.921Z,0.90
2017-12-14T15:34:59.431Z,4.70
2017-12-14T15:37:27.713Z,2.13
2017-12-14T15:39:55.267Z,1.07
2017-12-14T15:42:22.784Z,2.37
2017-12-14T15:44:50.347Z,1.27
2017-12-14T15:47:17.885Z,7.07
2017-12-14T15:49:45.449Z,2.07
2017-12-14T15:52:12.982Z,1.07
2017-12-14T15:54:40.534Z,1.70
2017-12-14T15:57:08.812Z,1.50
2017-12-14T15:59:36.398Z,0.83
2017-12-14T16:02:04.690Z,2.17
2017-12-14T16:04:32.270Z,1.20
2017-12-14T16:06:59.789Z,1.47
2017-12-14T16:09:27.364Z,1.33
2017-12-14T16:11:54.886Z,0.50
2017-12-14T16:14:22.405Z,0.83
2017-12-14T16:16:49.956Z,0.83
2017-12-14T16:19:17.489Z,0.93
2017-12-14T16:21:45.058Z,0.60
2017-12-14T16:24:13.356Z,4.63
2017-12-14T16:26:40.904Z,3.80
2017-12-14T16:29:08.427Z,3.97
2017-12-14T16:31:35.973Z,2.33
2017-12-14T16:34:04.267Z,1.27
2017-12-14T16:36:31.835Z,2.70
2017-12-14T16:39:00.160Z,2.10
2017-12-14T16:41:27.677Z,0.83
2017-12-14T16:43:55.222Z,2.30
2017-12-14T16:46:22.735Z,5.30
2017-12-14T16:48:50.285Z,2.20
2017-12-14T16:51:17.800Z,1.03
2017-12-14T16:53:45.348Z,3.40
2017-12-14T16:56:13.628Z,0.90
2017-12-14T16:58:41.949Z,7.10
2017-12-14T17:01:09.481Z,1.17
2017-12-14T17:03:37.056Z,1.93
2017-12-14T17:06:04.577Z,2.77
2017-12-14T17:08:32.093Z,1.23
2017-12-14T17:10:59.695Z,1.37
2017-12-14T17:13:27.214Z,4.33
2017-12-14T17:15:54.801Z,1.13
2017-12-14T17:18:22.325Z,3.30
2017-12-14T17:20:49.881Z,3.03
2017-12-14T17:23:17.419Z,4.20
2017-12-14T17:25:44.960Z,2.50
2017-12-14T17:28:12.495Z,10.37
2017-12-14T17:30:40.817Z,5.13
2017-12-14T17:33:08.353Z,2.23
2017-12-14T17:35:36.668Z,5.30
2017-12-14T17:38:04.205Z,8.03
2017-12-14T17:40:31.764Z,6.90
2017-12-14T17:42:59.293Z,6.83
2017-12-14T17:45:26.818Z,3.87
2017-12-14T17:47:54.370Z,9.20
2017-12-14T17:50:21.915Z,6.00
2017-12-14T17:52:49.478Z,5.47
2017-12-14T17:55:17.021Z,7.30
2017-12-14T17:57:45.333Z,7.53
2017-12-14T18:00:12.851Z,5.87
2017-12-14T18:02:40.413Z,8.80
2017-12-14T18:05:07.947Z,6.50
2017-12-14T18:07:35.501Z,8.23
2017-12-14T18:10:03.776Z,8.80
2017-12-14T18:12:31.357Z,10.43
2017-12-14T18:14:59.638Z,4.53
2017-12-14T18:17:27.165Z,4.10
2017-12-14T18:19:54.721Z,10.53
2017-12-14T18:22:22.269Z,12.20
2017-12-14T18:24:50.599Z,7.83
2017-12-14T18:27:18.121Z,12.57
2017-12-14T18:29:45.672Z,9.20
2017-12-14T18:32:13.192Z,7.10
2017-12-14T18:34:40.741Z,5.63
2017-12-14T18:37:09.021Z,11.23
2017-12-14T18:39:36.577Z,8.00
2017-12-14T18:42:04.093Z,12.60
2017-12-14T18:44:31.615Z,10.10
2017-12-14T18:46:59.192Z,11.13
2017-12-14T18:49:26.703Z,10.53
2017-12-14T18:51:54.269Z,9.30
2017-12-14T18:54:22.562Z,19.67
2017-12-14T18:56:50.116Z,17.07
2017-12-14T18:59:17.628Z,12.37
2017-12-14T19:01:45.303Z,11.77
2017-12-14T19:04:12.828Z,5.87
2017-12-14T19:06:40.390Z,5.67
2017-12-14T19:09:07.924Z,14.00
2017-12-14T19:11:35.483Z,9.57
2017-12-14T19:14:03.067Z,12.30
2017-12-14T19:16:30.629Z,9.40
2017-12-14T19:18:58.155Z,10.73
2017-12-14T19:21:25.671Z,15.53
2017-12-14T19:23:53.224Z,11.03
2017-12-14T19:26:21.505Z,8.60
2017-12-14T19:28:49.053Z,9.00
2017-12-14T19:31:16.576Z,14.37
2017-12-14T19:33:44.136Z,11.50
2017-12-14T19:36:12.431Z,13.10
2017-12-14T19:38:39.989Z,12.07
2017-12-14T19:41:08.516Z,9.37
2017-12-14T19:43:36.106Z,12.77
2017-12-14T19:46:03.626Z,14.33
2017-12-14T19:48:31.946Z,8.10
2017-12-14T19:51:00.278Z,8.53
2017-12-14T19:53:27.789Z,8.87
2017-12-14T19:55:56.106Z,12.97
2017-12-14T19:58:23.626Z,16.60
2017-12-14T20:00:51.241Z,14.30
2017-12-14T20:03:18.736Z,11.03
2017-12-14T20:05:46.301Z,11.77
2017-12-14T20:08:13.828Z,17.43
2017-12-14T20:10:42.143Z,12.37
2017-12-14T20:13:09.668Z,16.00
2017-12-14T20:15:37.307Z,15.10
2017-12-14T20:18:04.832Z,11.90
2017-12-14T20:20:32.373Z,12.60
2017-12-14T20:22:59.945Z,14.60
2017-12-14T20:25:27.709Z,10.73
2017-12-14T20:27:55.265Z,11.97
2017-12-14T20:30:22.817Z,9.23
2017-12-14T20:32:50.369Z,10.90
2017-12-14T20:35:17.890Z,8.47
2017-12-14T20:37:45.442Z,15.90
2017-12-14T20:40:12.971Z,9.30
2017-12-14T20:42:40.521Z,9.23
2017-12-14T20:45:08.049Z,10.37
2017-12-14T20:47:36.369Z,10.13
2017-12-14T20:50:03.893Z,9.57
2017-12-14T20:52:31.498Z,5.80
2017-12-14T20:54:59.013Z,7.93
2017-12-14T20:57:26.541Z,7.23
2017-12-14T20:59:54.104Z,10.13
2017-12-14T21:02:21.616Z,7.33
2017-12-14T21:04:49.175Z,4.33
2017-12-14T21:07:16.692Z,6.37
2017-12-14T21:09:44.256Z,10.10
2017-12-14T21:12:11.777Z,4.30
2017-12-14T21:14:39.345Z,3.77
2017-12-14T21:17:06.861Z,7.77
2017-12-14T21:19:34.416Z,10.00
2017-12-14T21:22:01.941Z,4.43
2017-12-14T21:24:30.253Z,5.40
2017-12-14T21:26:57.782Z,3.03
2017-12-14T21:29:25.343Z,5.60
2017-12-14T21:31:52.868Z,5.70
2017-12-14T21:34:20.456Z,3.50
2017-12-14T21:36:48.017Z,4.63
2017-12-14T21:39:15.537Z,2.20
2017-12-14T21:41:43.146Z,7.20
2017-12-14T21:44:10.638Z,8.13
2017-12-14T21:46:38.188Z,12.07
2017-12-14T21:49:05.714Z,2.93
2017-12-14T21:51:33.266Z,3.47
2017-12-14T21:54:00.795Z,4.20
2017-12-14T21:56:29.123Z,11.57
2017-12-14T21:58:56.650Z,10.47
2017-12-14T22:01:25.018Z,8.03
2017-12-14T22:03:52.544Z,7.70
2017-12-14T22:06:20.122Z,11.80
2017-12-14T22:08:47.645Z,11.87
2017-12-14T22:11:15.182Z,13.33
2017-12-14T22:13:42.728Z,9.73
2017-12-14T22:16:10.251Z,11.00
2017-12-14T22:18:37.806Z,8.23
2017-12-14T22:21:05.331Z,13.03
2017-12-14T22:23:33.650Z,6.33
2017-12-14T22:26:01.161Z,12.53
2017-12-14T22:28:28.718Z,6.87
2017-12-14T22:30:56.243Z,5.40
2017-12-14T22:33:23.797Z,6.63
2017-12-14T22:35:52.072Z,11.60
2017-12-14T22:38:19.791Z,10.93
2017-12-14T22:40:47.314Z,17.10
2017-12-14T22:43:14.829Z,5.17
2017-12-14T22:45:42.385Z,16.17
2017-12-14T22:48:09.900Z,8.47
2017-12-14T22:50:37.450Z,9.80
2017-12-14T22:53:04.969Z,7.97
2017-12-14T22:55:32.509Z,8.43
2017-12-14T22:58:00.020Z,3.40
2017-12-14T23:00:27.573Z,10.33
2017-12-14T23:02:55.105Z,5.03
2017-12-14T23:05:22.674Z,7.63
2017-12-14T23:07:50.201Z,8.63
2017-12-14T23:10:17.712Z,8.77
2017-12-14T23:12:46.026Z,8.97
2017-12-14T23:15:13.737Z,5.07
2017-12-14T23:17:41.296Z,7.93
2017-12-14T23:20:08.810Z,5.40
2017-12-14T23:22:37.137Z,6.83
2017-12-14T23:25:04.676Z,3.97
2017-12-14T23:27:32.241Z,9.60
2017-12-14T23:30:00.521Z,5.90
2017-12-14T23:32:28.041Z,4.07
2017-12-14T23:34:55.585Z,5.03
2017-12-14T23:37:23.115Z,4.50
2017-12-14T23:39:50.661Z,9.93
2017-12-14T23:42:18.180Z,6.03
2017-12-14T23:44:45.738Z,6.87
2017-12-14T23:47:13.254Z,4.50
2017-12-14T23:49:40.806Z,1.73
2017-12-14T23:52:09.091Z,3.80
2017-12-14T23:54:36.629Z,1.53
2017-12-14T23:57:04.145Z,2.40
2017-12-14T23:59:32.457Z,3.73
